createdAt,value
2022-10-07T00:01:06.882Z,13.20
2022-10-07T00:03:35.203Z,13.20
2022-10-07T00:06:06.197Z,13.20
2022-10-07T00:08:36.108Z,13.20
2022-10-07T00:11:05.228Z,13.40
2022-10-07T00:13:33.349Z,13.40
2022-10-07T00:16:06.949Z,13.40
2022-10-07T00:18:35.788Z,13.50
2022-10-07T00:21:06.786Z,13.60
2022-10-07T00:23:35.394Z,13.60
2022-10-07T00:26:03.944Z,13.60
2022-10-07T00:28:32.648Z,13.50
2022-10-07T00:31:01.242Z,13.30
2022-10-07T00:33:31.557Z,13.20
2022-10-07T00:35:59.876Z,13.20
2022-10-07T00:38:29.199Z,13.10
2022-10-07T00:40:57.195Z,13.10
2022-10-07T00:43:26.792Z,13.20
2022-10-07T00:45:57.151Z,13.30
2022-10-07T00:48:27.902Z,13.20
2022-10-07T00:50:57.626Z,13.20
2022-10-07T00:53:27.107Z,13.40
2022-10-07T00:56:01.728Z,13.70
2022-10-07T00:58:31.462Z,13.80
2022-10-07T01:00:59.981Z,13.70
2022-10-07T01:03:28.367Z,13.70
2022-10-07T01:05:56.680Z,13.70
2022-10-07T01:08:25.225Z,13.60
2022-10-07T01:11:00.392Z,13.30
2022-10-07T01:13:33.391Z,13.10
2022-10-07T01:16:05.310Z,13.10
2022-10-07T01:18:39.273Z,13.20
2022-10-07T01:21:08.852Z,13.40
2022-10-07T01:23:59.092Z,13.50
2022-10-07T01:26:44.906Z,13.40
2022-10-07T01:29:15.235Z,13.30
2022-10-07T01:31:45.035Z,13.20
2022-10-07T01:34:14.928Z,13.00
2022-10-07T01:36:47.578Z,13.00
2022-10-07T01:39:16.830Z,13.00
2022-10-07T01:41:46.747Z,13.10
2022-10-07T01:44:14.954Z,13.30
2022-10-07T01:46:44.032Z,13.50
2022-10-07T01:49:12.725Z,13.50
2022-10-07T01:51:51.969Z,13.30
2022-10-07T01:54:23.523Z,13.30
2022-10-07T01:57:04.619Z,13.10
2022-10-07T01:59:56.655Z,12.80
2022-10-07T02:02:28.259Z,12.70
2022-10-07T02:05:02.144Z,12.60
2022-10-07T02:07:36.793Z,12.50
2022-10-07T02:10:13.457Z,12.50
2022-10-07T02:12:48.301Z,12.50
2022-10-07T02:15:21.090Z,12.80
2022-10-07T02:17:54.051Z,12.60
2022-10-07T02:20:24.863Z,12.70
2022-10-07T02:22:54.697Z,12.60
2022-10-07T02:25:23.859Z,12.50
2022-10-07T02:27:54.792Z,12.70
2022-10-07T02:30:24.568Z,12.60
2022-10-07T02:32:54.315Z,12.30
2022-10-07T02:35:27.614Z,12.20
2022-10-07T02:37:58.342Z,12.40
2022-10-07T02:40:28.832Z,12.40
2022-10-07T02:43:01.223Z,12.60
2022-10-07T02:45:32.885Z,12.50
2022-10-07T02:48:04.234Z,12.40
2022-10-07T02:50:35.628Z,12.30
2022-10-07T02:53:04.375Z,12.40
2022-10-07T02:55:32.961Z,12.30
2022-10-07T02:58:05.765Z,12.30
2022-10-07T03:00:36.302Z,12.20
2022-10-07T03:03:05.339Z,12.20
2022-10-07T03:05:52.721Z,12.10
2022-10-07T03:08:21.504Z,12.10
2022-10-07T03:10:50.374Z,12.00
2022-10-07T03:13:20.940Z,12.00
2022-10-07T03:15:53.796Z,11.80
2022-10-07T03:18:29.586Z,11.80
2022-10-07T03:21:06.626Z,11.80
2022-10-07T03:23:35.812Z,11.70
2022-10-07T03:26:04.095Z,11.80
2022-10-07T03:28:35.368Z,11.80
2022-10-07T03:31:05.157Z,11.80
2022-10-07T03:33:34.972Z,12.00
2022-10-07T03:36:03.148Z,12.10
2022-10-07T03:38:31.583Z,12.10
2022-10-07T03:41:01.955Z,12.00
2022-10-07T03:43:30.382Z,12.00
2022-10-07T03:46:02.320Z,11.90
2022-10-07T03:48:32.353Z,12.00
2022-10-07T03:51:01.043Z,12.00
2022-10-07T03:53:31.431Z,11.90
2022-10-07T03:56:02.221Z,11.90
2022-10-07T03:58:31.919Z,11.80
2022-10-07T04:01:12.609Z,11.90
2022-10-07T04:03:47.483Z,12.10
2022-10-07T04:06:15.890Z,12.10
2022-10-07T04:08:44.901Z,12.10
2022-10-07T04:11:13.705Z,11.80
2022-10-07T04:13:45.160Z,11.70
2022-10-07T04:16:15.226Z,11.70
2022-10-07T04:18:44.181Z,11.70
2022-10-07T04:21:13.215Z,12.00
2022-10-07T04:23:42.467Z,12.10
2022-10-07T04:26:11.436Z,12.20
2022-10-07T04:28:43.713Z,12.20
2022-10-07T04:31:16.380Z,12.20
2022-10-07T04:33:47.664Z,12.20
2022-10-07T04:36:21.654Z,12.10
2022-10-07T04:39:05.991Z,12.10
2022-10-07T04:41:41.165Z,12.20
2022-10-07T04:44:14.840Z,12.20
2022-10-07T04:46:54.131Z,12.40
2022-10-07T04:49:22.345Z,12.50
2022-10-07T04:51:50.972Z,12.50
2022-10-07T04:54:19.656Z,12.40
2022-10-07T04:56:52.828Z,12.30
2022-10-07T04:59:27.934Z,12.30
2022-10-07T05:01:59.647Z,12.20
2022-10-07T05:04:30.024Z,12.20
2022-10-07T05:06:59.502Z,12.20
2022-10-07T05:09:27.961Z,12.10
2022-10-07T05:11:58.026Z,12.10
2022-10-07T05:14:26.170Z,12.10
2022-10-07T05:16:56.671Z,12.00
2022-10-07T05:19:30.315Z,12.10
2022-10-07T05:21:59.005Z,12.00
2022-10-07T05:24:27.841Z,12.00
2022-10-07T05:26:56.354Z,12.10
2022-10-07T05:29:24.826Z,12.20
2022-10-07T05:31:54.975Z,12.20
2022-10-07T05:34:26.740Z,12.20
2022-10-07T05:36:57.448Z,12.10
2022-10-07T05:39:25.646Z,12.30
2022-10-07T05:41:58.955Z,12.40
2022-10-07T05:44:32.473Z,12.70
2022-10-07T05:47:03.252Z,12.60
2022-10-07T05:49:31.791Z,12.70
2022-10-07T05:52:01.855Z,12.70
2022-10-07T05:54:30.413Z,12.80
2022-10-07T05:57:00.264Z,13.00
2022-10-07T05:59:28.549Z,13.10
2022-10-07T06:02:00.146Z,13.10
2022-10-07T06:04:29.346Z,13.10
2022-10-07T06:06:57.787Z,12.90
2022-10-07T06:09:45.163Z,13.10
2022-10-07T06:12:30.738Z,13.00
2022-10-07T06:15:00.275Z,12.90
2022-10-07T06:17:28.895Z,13.00
2022-10-07T06:19:59.922Z,13.00
2022-10-07T06:22:28.221Z,12.90
2022-10-07T06:25:01.035Z,12.60
2022-10-07T06:27:29.309Z,12.50
2022-10-07T06:29:57.769Z,12.60
2022-10-07T06:32:25.848Z,12.50
2022-10-07T06:34:54.453Z,12.60
2022-10-07T06:37:22.893Z,12.60
2022-10-07T06:39:51.079Z,12.60
2022-10-07T06:42:20.802Z,12.70
2022-10-07T06:45:14.996Z,12.80
2022-10-07T06:47:43.528Z,12.70
2022-10-07T06:50:11.969Z,12.90
2022-10-07T06:52:43.493Z,12.80
2022-10-07T06:55:12.358Z,12.70
2022-10-07T06:57:46.048Z,12.80
2022-10-07T07:00:17.465Z,12.90
2022-10-07T07:02:46.684Z,12.80
2022-10-07T07:05:15.955Z,12.80
2022-10-07T07:07:46.280Z,12.90
2022-10-07T07:10:15.164Z,13.20
2022-10-07T07:12:49.773Z,13.20
2022-10-07T07:15:18.861Z,13.30
2022-10-07T07:17:47.203Z,13.40
2022-10-07T07:20:16.684Z,13.50
2022-10-07T07:22:44.938Z,13.90
2022-10-07T07:25:13.179Z,14.00
2022-10-07T07:27:41.209Z,13.90
2022-10-07T07:30:13.744Z,14.00
2022-10-07T07:32:43.484Z,14.10
2022-10-07T07:35:11.655Z,14.10
2022-10-07T07:37:40.473Z,14.00
2022-10-07T07:40:09.664Z,14.00
2022-10-07T07:42:38.254Z,14.10
2022-10-07T07:45:09.984Z,14.00
2022-10-07T07:47:40.358Z,14.20
2022-10-07T07:50:09.114Z,14.20
2022-10-07T07:52:37.385Z,14.30
2022-10-07T07:55:08.086Z,14.50
2022-10-07T07:57:38.138Z,14.50
2022-10-07T08:00:11.371Z,14.50
2022-10-07T08:02:47.678Z,14.50
2022-10-07T08:05:23.703Z,14.40
2022-10-07T08:07:55.509Z,14.80
2022-10-07T08:10:25.539Z,14.80
2022-10-07T08:12:53.891Z,14.70
2022-10-07T08:15:22.253Z,14.80
2022-10-07T08:17:52.873Z,15.00
2022-10-07T08:20:21.019Z,15.10
2022-10-07T08:22:49.893Z,15.20
2022-10-07T08:25:18.716Z,15.20
2022-10-07T08:27:48.037Z,15.20
2022-10-07T08:30:17.124Z,15.30
2022-10-07T08:32:45.695Z,15.10
2022-10-07T08:35:15.302Z,15.10
2022-10-07T08:37:44.018Z,15.30
2022-10-07T08:40:15.937Z,15.50
2022-10-07T08:42:45.049Z,15.50
2022-10-07T08:45:16.489Z,15.60
2022-10-07T08:47:46.666Z,15.50
2022-10-07T08:50:19.698Z,15.50
2022-10-07T08:52:50.925Z,15.50
2022-10-07T08:55:20.763Z,15.50
2022-10-07T08:57:54.824Z,15.60
2022-10-07T09:00:24.879Z,15.90
2022-10-07T09:03:00.554Z,15.90
2022-10-07T09:05:33.680Z,15.90
2022-10-07T09:08:03.843Z,15.80
2022-10-07T09:10:34.079Z,16.00
2022-10-07T09:13:04.753Z,16.00
2022-10-07T09:15:40.379Z,16.00
2022-10-07T09:18:13.169Z,16.20
2022-10-07T09:20:44.242Z,16.20
2022-10-07T09:23:15.381Z,16.30
2022-10-07T09:25:44.700Z,16.40
2022-10-07T09:28:13.791Z,16.20
2022-10-07T09:30:43.018Z,16.40
2022-10-07T09:33:15.519Z,16.50
2022-10-07T09:35:47.255Z,16.50
2022-10-07T09:38:15.673Z,16.60
2022-10-07T09:40:59.089Z,16.40
2022-10-07T09:43:28.359Z,16.30
2022-10-07T09:45:57.086Z,16.40
2022-10-07T09:48:26.633Z,16.50
2022-10-07T09:51:12.387Z,16.50
2022-10-07T09:53:55.336Z,16.60
2022-10-07T09:56:31.873Z,16.80
2022-10-07T09:59:15.503Z,16.80
2022-10-07T10:01:49.449Z,16.80
2022-10-07T10:04:18.017Z,17.00
2022-10-07T10:06:48.947Z,17.10
2022-10-07T10:09:20.374Z,17.10
2022-10-07T10:12:00.272Z,17.20
2022-10-07T10:14:29.471Z,17.20
2022-10-07T10:16:57.719Z,17.20
2022-10-07T10:19:26.803Z,17.30
2022-10-07T10:21:57.028Z,17.40
2022-10-07T10:24:40.150Z,17.60
2022-10-07T10:27:10.151Z,17.50
2022-10-07T10:29:51.053Z,17.60
2022-10-07T10:32:39.100Z,17.60
2022-10-07T10:35:10.215Z,17.60
2022-10-07T10:37:48.470Z,17.60
2022-10-07T10:40:21.351Z,17.70
2022-10-07T10:42:53.280Z,17.50
2022-10-07T10:45:30.447Z,17.50
2022-10-07T10:48:07.319Z,17.60
2022-10-07T10:50:38.221Z,17.60
2022-10-07T10:53:13.468Z,17.50
2022-10-07T10:55:49.913Z,17.70
2022-10-07T10:58:24.934Z,17.90
2022-10-07T11:00:59.591Z,17.90
2022-10-07T11:03:34.302Z,18.00
2022-10-07T11:06:04.966Z,18.20
2022-10-07T11:08:38.319Z,18.00
2022-10-07T11:11:08.867Z,17.90
2022-10-07T11:13:39.470Z,18.10
2022-10-07T11:16:09.576Z,18.20
2022-10-07T11:18:41.251Z,18.20
2022-10-07T11:21:12.640Z,18.30
2022-10-07T11:23:47.605Z,18.20
2022-10-07T11:26:20.301Z,18.20
2022-10-07T11:28:50.852Z,18.30
2022-10-07T11:31:25.466Z,18.40
2022-10-07T11:33:57.047Z,18.60
2022-10-07T11:36:30.231Z,18.40
2022-10-07T11:39:00.589Z,18.40
2022-10-07T11:41:31.082Z,18.60
2022-10-07T11:44:01.702Z,18.70
2022-10-07T11:46:32.395Z,18.50
2022-10-07T11:49:02.976Z,18.60
2022-10-07T11:51:34.308Z,18.50
2022-10-07T11:54:06.521Z,18.50
2022-10-07T11:56:39.415Z,18.60
2022-10-07T11:59:08.610Z,18.60
2022-10-07T12:01:45.947Z,18.50
2022-10-07T12:04:33.993Z,18.70
2022-10-07T12:07:21.032Z,18.70
2022-10-07T12:10:09.739Z,18.80
2022-10-07T12:12:51.725Z,18.90
2022-10-07T12:15:30.056Z,19.00
2022-10-07T12:18:18.517Z,19.00
2022-10-07T12:20:58.727Z,19.00
2022-10-07T12:23:50.650Z,19.00
2022-10-07T12:26:45.930Z,19.00
2022-10-07T12:29:31.943Z,19.10
2022-10-07T12:32:01.686Z,19.10
2022-10-07T12:34:35.333Z,19.30
2022-10-07T12:37:21.912Z,19.30
2022-10-07T12:39:50.371Z,19.20
2022-10-07T12:42:18.593Z,19.30
2022-10-07T12:44:48.904Z,19.20
2022-10-07T12:47:22.309Z,19.10
2022-10-07T12:49:51.458Z,19.20
2022-10-07T12:52:23.373Z,19.30
2022-10-07T12:54:53.774Z,19.30
2022-10-07T12:57:23.273Z,19.20
2022-10-07T12:59:58.004Z,19.20
2022-10-07T13:03:00.259Z,19.10
2022-10-07T13:05:46.670Z,19.20
2022-10-07T13:08:33.172Z,19.30
2022-10-07T13:11:32.230Z,19.20
2022-10-07T13:14:03.186Z,19.10
2022-10-07T13:16:34.224Z,19.20
2022-10-07T13:19:05.248Z,19.30
2022-10-07T13:21:35.995Z,19.20
2022-10-07T13:24:06.128Z,19.20
2022-10-07T13:26:34.398Z,19.10
2022-10-07T13:29:02.530Z,19.30
2022-10-07T13:31:31.799Z,19.30
2022-10-07T13:34:01.260Z,19.30
2022-10-07T13:36:30.095Z,19.30
2022-10-07T13:39:13.131Z,19.40
2022-10-07T13:41:43.834Z,19.50
2022-10-07T13:44:14.980Z,19.50
2022-10-07T13:46:51.151Z,19.50
2022-10-07T13:49:22.950Z,19.50
2022-10-07T13:51:56.078Z,19.40
2022-10-07T13:54:27.004Z,19.40
2022-10-07T13:56:55.503Z,19.40
2022-10-07T13:59:23.975Z,19.20
2022-10-07T14:01:53.422Z,19.10
2022-10-07T14:04:28.627Z,19.20
2022-10-07T14:07:00.344Z,19.10
2022-10-07T14:09:51.469Z,19.20
2022-10-07T14:12:23.008Z,19.20
2022-10-07T14:14:53.291Z,19.40
2022-10-07T14:17:28.905Z,19.50
2022-10-07T14:19:58.696Z,19.50
2022-10-07T14:22:30.163Z,19.60
2022-10-07T14:25:00.514Z,19.60
2022-10-07T14:27:47.143Z,19.50
2022-10-07T14:30:55.532Z,19.60
2022-10-07T14:33:47.768Z,19.50
2022-10-07T14:36:16.678Z,19.40
2022-10-07T14:38:46.483Z,19.30
2022-10-07T14:41:15.310Z,19.30
2022-10-07T14:43:44.838Z,19.30
2022-10-07T14:46:18.340Z,19.30
2022-10-07T14:48:46.834Z,19.40
2022-10-07T14:51:15.986Z,19.50
2022-10-07T14:53:44.809Z,19.40
2022-10-07T14:56:14.276Z,19.40
2022-10-07T14:58:43.371Z,19.30
2022-10-07T15:01:11.430Z,19.40
2022-10-07T15:03:40.863Z,19.40
2022-10-07T15:06:09.240Z,19.30
2022-10-07T15:08:37.399Z,19.40
2022-10-07T15:11:06.637Z,19.40
2022-10-07T15:13:34.787Z,19.40
2022-10-07T15:16:03.263Z,19.40
2022-10-07T15:18:31.266Z,19.40
2022-10-07T15:21:00.897Z,19.30
2022-10-07T15:23:30.216Z,19.50
2022-10-07T15:25:58.273Z,19.60
2022-10-07T15:28:26.671Z,19.60
2022-10-07T15:31:02.308Z,19.70
2022-10-07T15:33:31.043Z,19.50
2022-10-07T15:35:59.281Z,19.40
2022-10-07T15:38:29.218Z,19.30
2022-10-07T15:40:58.684Z,19.30
2022-10-07T15:43:27.137Z,19.30
2022-10-07T15:45:58.766Z,19.30
2022-10-07T15:48:28.693Z,19.40
2022-10-07T15:50:57.280Z,19.30
2022-10-07T15:53:25.891Z,19.20
2022-10-07T15:55:56.266Z,19.30
2022-10-07T15:58:24.800Z,19.20
2022-10-07T16:01:00.595Z,19.20
2022-10-07T16:03:29.696Z,19.20
2022-10-07T16:05:58.281Z,19.30
2022-10-07T16:08:26.280Z,19.10
2022-10-07T16:10:56.014Z,19.20
2022-10-07T16:13:24.185Z,19.20
2022-10-07T16:15:59.083Z,19.00
2022-10-07T16:18:29.809Z,19.00
2022-10-07T16:20:57.804Z,18.70
2022-10-07T16:23:25.948Z,18.70
2022-10-07T16:25:54.215Z,18.70
2022-10-07T16:28:44.138Z,18.70
2022-10-07T16:31:12.456Z,18.70
2022-10-07T16:33:41.497Z,18.70
2022-10-07T16:36:11.488Z,18.80
2022-10-07T16:38:40.592Z,18.60
2022-10-07T16:41:08.723Z,18.50
2022-10-07T16:43:38.348Z,18.60
2022-10-07T16:46:07.828Z,18.50
2022-10-07T16:48:39.546Z,18.50
2022-10-07T16:51:09.612Z,18.30
2022-10-07T16:53:38.433Z,18.40
2022-10-07T16:56:06.881Z,18.30
2022-10-07T16:58:38.418Z,18.40
2022-10-07T17:01:09.548Z,18.40
2022-10-07T17:03:39.698Z,18.20
2022-10-07T17:06:08.805Z,18.10
2022-10-07T17:08:41.240Z,18.00
2022-10-07T17:11:14.286Z,18.10
2022-10-07T17:13:42.443Z,18.00
2022-10-07T17:16:13.562Z,17.80
2022-10-07T17:18:41.981Z,17.80
2022-10-07T17:21:10.024Z,17.90
2022-10-07T17:23:38.125Z,17.80
2022-10-07T17:26:07.734Z,17.80
2022-10-07T17:28:35.939Z,17.80
2022-10-07T17:31:07.247Z,17.80
2022-10-07T17:33:37.058Z,17.80
2022-10-07T17:36:07.381Z,17.70
2022-10-07T17:38:39.476Z,17.60
2022-10-07T17:41:11.374Z,17.50
2022-10-07T17:43:41.519Z,17.40
2022-10-07T17:46:12.915Z,17.40
2022-10-07T17:48:44.183Z,17.40
2022-10-07T17:51:13.115Z,17.50
2022-10-07T17:53:41.334Z,17.40
2022-10-07T17:56:10.868Z,17.50
2022-10-07T17:58:40.671Z,17.40
2022-10-07T18:01:09.517Z,17.10
2022-10-07T18:03:38.488Z,17.10
2022-10-07T18:06:08.676Z,17.00
2022-10-07T18:08:37.157Z,16.90
2022-10-07T18:11:05.218Z,17.00
2022-10-07T18:13:51.636Z,17.00
2022-10-07T18:16:20.516Z,16.80
2022-10-07T18:18:49.204Z,16.90
2022-10-07T18:21:18.711Z,16.90
2022-10-07T18:23:46.788Z,16.70
2022-10-07T18:26:15.879Z,16.60
2022-10-07T18:28:44.094Z,16.60
2022-10-07T18:31:12.561Z,16.50
2022-10-07T18:33:41.017Z,16.80
2022-10-07T18:36:10.624Z,17.00
2022-10-07T18:38:41.678Z,16.90
2022-10-07T18:41:10.556Z,16.80
2022-10-07T18:43:39.631Z,16.70
2022-10-07T18:46:10.243Z,16.50
2022-10-07T18:48:39.716Z,16.40
2022-10-07T18:51:08.072Z,16.60
2022-10-07T18:53:37.163Z,16.70
2022-10-07T18:56:08.551Z,16.60
2022-10-07T18:58:37.172Z,16.70
2022-10-07T19:01:08.316Z,16.60
2022-10-07T19:03:36.729Z,16.50
2022-10-07T19:06:05.935Z,16.60
2022-10-07T19:08:34.559Z,16.80
2022-10-07T19:11:07.846Z,16.60
2022-10-07T19:13:51.979Z,16.60
2022-10-07T19:16:21.510Z,16.60
2022-10-07T19:18:51.059Z,16.60
2022-10-07T19:21:20.048Z,16.30
2022-10-07T19:23:48.850Z,16.50
2022-10-07T19:26:21.335Z,16.60
2022-10-07T19:28:51.802Z,16.70
2022-10-07T19:31:23.372Z,16.60
2022-10-07T19:33:52.756Z,16.70
2022-10-07T19:36:21.881Z,16.50
2022-10-07T19:38:52.594Z,16.30
2022-10-07T19:41:23.266Z,16.30
2022-10-07T19:43:52.038Z,16.30
2022-10-07T19:46:21.084Z,16.20
2022-10-07T19:48:49.401Z,15.90
2022-10-07T19:51:19.271Z,15.90
2022-10-07T19:53:47.541Z,16.00
2022-10-07T19:56:17.284Z,16.10
2022-10-07T19:58:48.900Z,16.10
2022-10-07T20:01:18.849Z,16.10
2022-10-07T20:03:47.122Z,16.10
2022-10-07T20:06:15.861Z,16.20
2022-10-07T20:08:44.979Z,16.20
2022-10-07T20:11:13.531Z,16.10
2022-10-07T20:13:41.986Z,16.00
2022-10-07T20:16:12.650Z,16.00
2022-10-07T20:18:41.328Z,16.20
2022-10-07T20:21:14.022Z,16.20
2022-10-07T20:23:42.877Z,16.10
2022-10-07T20:26:12.070Z,16.00
2022-10-07T20:28:40.873Z,15.90
2022-10-07T20:31:10.398Z,16.20
2022-10-07T20:33:40.441Z,16.20
2022-10-07T20:36:09.551Z,16.30
2022-10-07T20:38:52.094Z,16.40
2022-10-07T20:41:37.154Z,16.60
2022-10-07T20:44:06.194Z,16.50
2022-10-07T20:46:34.623Z,16.20
2022-10-07T20:49:04.543Z,16.10
2022-10-07T20:51:34.042Z,16.20
2022-10-07T20:54:03.444Z,16.40
2022-10-07T20:56:32.904Z,16.40
2022-10-07T20:59:01.156Z,16.30
2022-10-07T21:01:29.479Z,16.20
2022-10-07T21:03:57.555Z,16.20
2022-10-07T21:06:27.302Z,16.30
2022-10-07T21:08:55.705Z,16.30
2022-10-07T21:11:23.903Z,16.40
2022-10-07T21:13:52.553Z,16.20
2022-10-07T21:16:21.055Z,16.20
2022-10-07T21:18:49.228Z,16.00
2022-10-07T21:21:17.789Z,16.00
2022-10-07T21:23:47.270Z,15.90
2022-10-07T21:26:15.396Z,16.20
2022-10-07T21:28:43.829Z,16.10
2022-10-07T21:31:15.144Z,15.90
2022-10-07T21:33:43.265Z,16.00
2022-10-07T21:36:12.891Z,16.00
2022-10-07T21:38:40.943Z,16.10
2022-10-07T21:41:14.342Z,16.00
2022-10-07T21:43:44.127Z,16.00
2022-10-07T21:46:12.274Z,16.00
2022-10-07T21:48:40.954Z,16.10
2022-10-07T21:51:09.918Z,16.30
2022-10-07T21:53:38.437Z,16.00
2022-10-07T21:56:07.257Z,16.20
2022-10-07T21:58:36.954Z,15.90
2022-10-07T22:01:05.322Z,16.00
2022-10-07T22:03:33.454Z,16.00
2022-10-07T22:06:02.324Z,16.20
2022-10-07T22:08:35.618Z,16.00
2022-10-07T22:11:04.691Z,16.00
2022-10-07T22:13:33.425Z,15.90
2022-10-07T22:16:03.820Z,15.80
2022-10-07T22:18:34.266Z,15.80
2022-10-07T22:21:03.287Z,15.80
2022-10-07T22:23:31.479Z,15.80
2022-10-07T22:26:03.221Z,15.70
2022-10-07T22:28:33.236Z,15.70
2022-10-07T22:31:04.720Z,15.50
2022-10-07T22:33:32.970Z,15.40
2022-10-07T22:36:02.306Z,15.50
2022-10-07T22:38:30.606Z,15.50
2022-10-07T22:40:58.701Z,15.50
2022-10-07T22:43:26.654Z,15.60
2022-10-07T22:45:56.030Z,15.70
2022-10-07T22:48:25.650Z,15.70
2022-10-07T22:50:54.158Z,15.80
2022-10-07T22:53:26.313Z,15.70
2022-10-07T22:55:54.306Z,15.60
2022-10-07T22:58:22.477Z,15.80
2022-10-07T23:00:50.754Z,15.60
2022-10-07T23:03:20.281Z,15.70
2022-10-07T23:05:50.849Z,15.70
2022-10-07T23:08:19.278Z,15.60
2022-10-07T23:10:55.887Z,15.70
2022-10-07T23:13:26.839Z,15.70
2022-10-07T23:15:59.404Z,15.60
2022-10-07T23:18:31.225Z,15.50
2022-10-07T23:21:01.516Z,15.50
2022-10-07T23:23:30.219Z,15.50
2022-10-07T23:25:58.855Z,15.50
2022-10-07T23:28:27.137Z,15.50
2022-10-07T23:30:56.432Z,15.60
2022-10-07T23:33:24.923Z,15.70
2022-10-07T23:35:56.404Z,15.60
2022-10-07T23:38:26.372Z,15.70
2022-10-07T23:40:54.765Z,15.60
2022-10-07T23:43:22.902Z,15.50
2022-10-07T23:45:51.179Z,15.50
2022-10-07T23:48:19.668Z,15.60
2022-10-07T23:50:48.730Z,15.60
2022-10-07T23:53:16.945Z,15.60
2022-10-07T23:55:48.152Z,15.40
2022-10-07T23:58:16.632Z,15.50
